Time;durP1;ratioP1;P1;durP2;ratioP2;P2;SDS_P1;SDS_P2;PMS_P1;PMS_P2;Temp;Humidity;BMP_temperature;BMP_pressure;BME280_temperature;BME280_humidity;BME280_pressure;Samples;Min_cycle;Max_cycle;Signal;HPM_P1;HPM_P2
2020/04/25 00:03:15;;;;;;;5.6;3.6;;;;;;;14.15;48.44824;951.9634;;;;
2020/04/25 00:05:24;;;;;;;6.1;4.2;;;;;;;14.14;48.52832;951.9911;;;;
2020/04/25 00:07:50;;;;;;;7.1;4.1;;;;;;;13.99;48.90625;952.0225;;;;
2020/04/25 00:10:15;;;;;;;5.2;3.5;;;;;;;13.93;49.18945;952.0319;;;;
2020/04/25 00:12:40;;;;;;;8.1;3.9;;;;;;;13.83;49.57129;951.9606;;;;
2020/04/25 00:15:05;;;;;;;7.7;3.8;;;;;;;13.78;49.65918;951.9689;;;;
2020/04/25 00:17:31;;;;;;;7.2;3.5;;;;;;;13.75;49.91113;951.9575;;;;
2020/04/25 00:19:56;;;;;;;7;3.8;;;;;;;13.72;50.24316;951.9702;;;;
2020/04/25 00:22:22;;;;;;;5.8;3.8;;;;;;;13.66;50.56152;951.9213;;;;
2020/04/25 00:24:47;;;;;;;8.7;3.8;;;;;;;13.69;50.36719;951.9432;;;;
2020/04/25 00:27:13;;;;;;;6.5;3.9;;;;;;;13.59;50.59961;951.9102;;;;
2020/04/25 00:29:38;;;;;;;5.7;4.2;;;;;;;13.57;50.75977;951.9169;;;;
2020/04/25 00:32:03;;;;;;;6.9;3.5;;;;;;;13.62;50.76465;951.8929;;;;
2020/04/25 00:34:28;;;;;;;7.6;3.6;;;;;;;13.46;51.26758;951.8256;;;;
2020/04/25 00:36:53;;;;;;;8.6;4.2;;;;;;;13.48;51.18945;951.8894;;;;
2020/04/25 00:39:18;;;;;;;5.6;3.7;;;;;;;13.32;51.70313;951.8681;;;;
2020/04/25 00:41:44;;;;;;;8.3;3.8;;;;;;;13.39;51.63086;951.8391;;;;
2020/04/25 00:44:09;;;;;;;7.1;3.8;;;;;;;13.39;51.80469;951.8228;;;;
2020/04/25 00:46:34;;;;;;;5.6;3.7;;;;;;;13.43;51.63477;951.8708;;;;
2020/04/25 00:48:59;;;;;;;6.7;3.8;;;;;;;13.27;52.18457;951.883;;;;
2020/04/25 00:51:24;;;;;;;8.2;4;;;;;;;13.26;52.20605;951.9085;;;;
2020/04/25 00:53:50;;;;;;;5.7;3.6;;;;;;;13.29;52.26758;951.96;;;;
2020/04/25 00:56:15;;;;;;;5;3.7;;;;;;;13.31;52.44336;951.9286;;;;
2020/04/25 00:58:40;;;;;;;6.7;3.6;;;;;;;13.27;52.55371;951.9755;;;;
2020/04/25 01:01:05;;;;;;;5.3;3.7;;;;;;;13.24;52.71289;951.9835;;;;
2020/04/25 01:03:31;;;;;;;7.3;4;;;;;;;13.16;52.80859;951.9942;;;;
2020/04/25 01:05:57;;;;;;;6.9;4;;;;;;;13.14;53.00195;952.0223;;;;
2020/04/25 01:08:23;;;;;;;5.2;3.8;;;;;;;13.24;52.86426;951.963;;;;
2020/04/25 01:10:48;;;;;;;5.4;4;;;;;;;13.17;53.00488;952.0165;;;;
2020/04/25 01:13:14;;;;;;;5.3;3.9;;;;;;;13.04;53.42969;951.9677;;;;
2020/04/25 01:15:39;;;;;;;7.1;3.8;;;;;;;13.14;53.48828;952.0273;;;;
2020/04/25 01:18:04;;;;;;;4.8;3.7;;;;;;;13.15;53.36133;952.0255;;;;
2020/04/25 01:20:30;;;;;;;5.7;4.1;;;;;;;12.93;54.15625;952.005;;;;
2020/04/25 01:22:55;;;;;;;7.1;4.2;;;;;;;12.96;53.90625;951.9191;;;;
2020/04/25 01:25:20;;;;;;;5.7;3.9;;;;;;;12.91;54.14355;951.9902;;;;
2020/04/25 01:27:45;;;;;;;7.6;4.4;;;;;;;12.81;54.53516;951.9537;;;;
2020/04/25 01:30:10;;;;;;;6.6;4.3;;;;;;;12.74;55.11523;951.9774;;;;
2020/04/25 01:32:35;;;;;;;7;4.2;;;;;;;12.69;55.16797;951.9654;;;;
2020/04/25 01:35:00;;;;;;;8.7;4.2;;;;;;;12.81;55.1123;951.9309;;;;
2020/04/25 01:37:25;;;;;;;5.4;4.2;;;;;;;12.68;55.33887;951.9849;;;;
2020/04/25 01:39:50;;;;;;;7.3;4;;;;;;;12.55;55.7627;951.9891;;;;
2020/04/25 01:42:15;;;;;;;8.2;4.5;;;;;;;12.49;56.06641;951.9852;;;;
2020/04/25 01:44:40;;;;;;;7.2;4.4;;;;;;;12.54;55.99219;952.0292;;;;
2020/04/25 01:47:05;;;;;;;6.5;4.3;;;;;;;12.5;56.11523;952.0005;;;;
2020/04/25 01:49:30;;;;;;;9.2;4.3;;;;;;;12.41;56.4502;951.9584;;;;
2020/04/25 01:51:55;;;;;;;6.9;3.9;;;;;;;12.5;56.25293;951.9581;;;;
2020/04/25 01:54:21;;;;;;;6.7;4.2;;;;;;;12.46;56.41016;951.9295;;;;
2020/04/25 01:56:46;;;;;;;8.5;4.6;;;;;;;12.53;56.36035;951.9221;;;;
2020/04/25 01:59:11;;;;;;;8;4.3;;;;;;;12.56;56.23926;951.9084;;;;
2020/04/25 02:01:36;;;;;;;7.3;4.4;;;;;;;12.39;56.77051;951.9158;;;;
2020/04/25 02:04:01;;;;;;;9.1;4.3;;;;;;;12.34;56.98438;951.9019;;;;
2020/04/25 02:06:26;;;;;;;5.9;4.1;;;;;;;12.34;56.97168;951.8995;;;;
2020/04/25 02:08:51;;;;;;;6.7;4.2;;;;;;;12.38;56.89648;951.9116;;;;
2020/04/25 02:11:16;;;;;;;7.2;4.3;;;;;;;12.27;57.67969;951.9208;;;;
2020/04/25 02:13:41;;;;;;;8.9;4.6;;;;;;;12.27;57.93359;951.8906;;;;
2020/04/25 02:16:06;;;;;;;7.5;4.6;;;;;;;12.2;57.60059;951.9182;;;;
2020/04/25 02:18:31;;;;;;;6.7;4.4;;;;;;;12.23;58.32031;951.8699;;;;
2020/04/25 02:20:56;;;;;;;7;4.5;;;;;;;12.14;58.30859;951.8479;;;;
2020/04/25 02:23:22;;;;;;;7.3;4.7;;;;;;;12.23;57.68555;951.8258;;;;
2020/04/25 02:25:47;;;;;;;8.1;4.5;;;;;;;12.16;57.92969;951.8848;;;;
2020/04/25 02:28:12;;;;;;;6.6;4.6;;;;;;;12.01;58.30273;951.8333;;;;
2020/04/25 02:30:38;;;;;;;6.6;4.3;;;;;;;12.19;57.89941;951.9077;;;;
2020/04/25 02:33:03;;;;;;;9.7;4.6;;;;;;;12.04;58.18066;951.8544;;;;
2020/04/25 02:35:29;;;;;;;7.6;4.7;;;;;;;12.06;58.1709;951.8937;;;;
2020/04/25 02:37:55;;;;;;;8.8;4.5;;;;;;;12.08;58.27832;951.9352;;;;
2020/04/25 02:40:21;;;;;;;6.2;5;;;;;;;12;58.53125;951.8921;;;;
2020/04/25 02:42:46;;;;;;;8.9;5.1;;;;;;;11.97;58.58594;951.8945;;;;
2020/04/25 02:45:11;;;;;;;8.1;4.9;;;;;;;11.94;58.69727;952.0309;;;;
2020/04/25 02:47:37;;;;;;;6.4;4.7;;;;;;;11.91;59.05176;951.9606;;;;
2020/04/25 02:50:02;;;;;;;7.6;5.1;;;;;;;11.91;58.78613;951.9614;;;;
2020/04/25 02:52:28;;;;;;;9.6;5.1;;;;;;;11.84;58.9502;951.9281;;;;
2020/04/25 02:54:53;;;;;;;7.5;5.2;;;;;;;11.91;58.91211;951.9084;;;;
2020/04/25 02:57:19;;;;;;;7.6;5;;;;;;;11.87;59.11523;951.8778;;;;
2020/04/25 02:59:44;;;;;;;7.9;5.6;;;;;;;11.99;58.65918;951.8178;;;;
2020/04/25 03:02:10;;;;;;;11.3;5.8;;;;;;;11.84;59.00781;951.8702;;;;
2020/04/25 03:04:35;;;;;;;8.4;5.8;;;;;;;11.73;59.50098;951.8832;;;;
2020/04/25 03:07:00;;;;;;;8.3;5.9;;;;;;;11.66;59.59473;951.8714;;;;
2020/04/25 03:09:26;;;;;;;9;5.8;;;;;;;11.84;59.2959;951.9632;;;;
2020/04/25 03:11:52;;;;;;;9.2;5.9;;;;;;;11.63;59.87793;951.8845;;;;
2020/04/25 03:14:17;;;;;;;9.6;6.2;;;;;;;11.77;59.78223;951.88;;;;
2020/04/25 03:16:42;;;;;;;8.9;6.2;;;;;;;11.82;59.33887;951.8703;;;;
2020/04/25 03:19:10;;;;;;;8.4;5.9;;;;;;;11.77;59.72461;951.8709;;;;
2020/04/25 03:21:35;;;;;;;10.3;6.1;;;;;;;11.76;59.62012;951.8979;;;;
2020/04/25 03:24:00;;;;;;;10.6;6.4;;;;;;;11.65;59.84766;951.9547;;;;
2020/04/25 03:26:25;;;;;;;12.8;6.3;;;;;;;11.48;60.64258;951.9713;;;;
2020/04/25 03:28:50;;;;;;;8.8;6.4;;;;;;;11.37;60.87988;951.9989;;;;
2020/04/25 03:31:15;;;;;;;8.7;6.4;;;;;;;11.41;60.74805;951.9998;;;;
2020/04/25 03:33:40;;;;;;;8.3;6.3;;;;;;;11.57;60.19336;951.9194;;;;
2020/04/25 03:36:06;;;;;;;10.1;6.1;;;;;;;11.55;60.60645;951.9595;;;;
2020/04/25 03:38:32;;;;;;;11.7;6.9;;;;;;;11.52;60.32617;951.9725;;;;
2020/04/25 03:40:57;;;;;;;9.5;6.6;;;;;;;11.38;60.83496;951.9385;;;;
2020/04/25 03:43:23;;;;;;;11.3;7.3;;;;;;;11.4;60.86035;951.955;;;;
2020/04/25 03:45:48;;;;;;;9.3;7;;;;;;;11.5;60.69141;952.009;;;;
2020/04/25 03:48:13;;;;;;;8.6;6.4;;;;;;;11.3;61.22754;952.0744;;;;
2020/04/25 03:50:38;;;;;;;15;7.5;;;;;;;11.3;61.44629;952.0653;;;;
2020/04/25 03:53:04;;;;;;;9.6;7.1;;;;;;;11.3;61.45801;952.0262;;;;
2020/04/25 03:55:29;;;;;;;9.1;6.8;;;;;;;11.21;61.67676;952.0779;;;;
2020/04/25 03:57:55;;;;;;;11.3;7.6;;;;;;;11.09;61.79883;952.0432;;;;
2020/04/25 04:02:27;;;;;;;10.5;8;;;;;;;11.32;61.16113;952.072;;;;
2020/04/25 04:05:01;;;;;;;11.9;7.9;;;;;;;11.4;61.10449;952.0259;;;;
2020/04/25 04:07:21;;;;;;;10.7;7.7;;;;;;;11.32;61.22949;952.055;;;;
2020/04/25 04:12:48;;;;;;;12.5;8.5;;;;;;;11.23;61.81738;952.0978;;;;
2020/04/25 04:16:03;;;;;;;12.8;8.6;;;;;;;11.21;62.2998;952.0658;;;;
2020/04/25 04:17:25;;;;;;;11.3;7.9;;;;;;;11.15;61.77148;952.1153;;;;
2020/04/25 04:21:33;;;;;;;10.7;8;;;;;;;10.92;62.94824;952.0679;;;;
2020/04/25 04:24:55;;;;;;;12.4;8.2;;;;;;;11.13;62.0918;952.0966;;;;
2020/04/25 04:28:34;;;;;;;11.4;8.2;;;;;;;10.92;62.87891;952.1478;;;;
2020/04/25 04:31:18;;;;;;;11;8.6;;;;;;;10.85;62.92578;952.1969;;;;
2020/04/25 04:33:25;;;;;;;11.4;9.1;;;;;;;10.83;63.12012;952.1926;;;;
2020/04/25 04:35:47;;;;;;;13.5;8.7;;;;;;;10.89;63.03516;952.2297;;;;
2020/04/25 04:43:06;;;;;;;12.4;8.7;;;;;;;10.8;63.63379;952.262;;;;
2020/04/25 04:45:30;;;;;;;12.7;9.2;;;;;;;10.95;63.18359;952.2539;;;;
2020/04/25 04:47:46;;;;;;;11;8.7;;;;;;;11;63.00684;952.2475;;;;
2020/04/25 04:50:11;;;;;;;14;9.1;;;;;;;10.96;62.78027;952.2742;;;;
2020/04/25 04:52:36;;;;;;;14.1;9.2;;;;;;;10.88;62.68848;952.2419;;;;
2020/04/25 04:55:01;;;;;;;11.9;8.9;;;;;;;11.09;62.63867;952.2405;;;;
2020/04/25 04:57:26;;;;;;;14.5;9.6;;;;;;;11.01;62.5;952.2885;;;;
2020/04/25 04:59:51;;;;;;;14.2;10.1;;;;;;;10.88;62.89648;952.2639;;;;
2020/04/25 05:02:16;;;;;;;13;10;;;;;;;10.89;63.32422;952.3351;;;;
2020/04/25 05:04:41;;;;;;;17.6;10.5;;;;;;;11.05;62.41406;952.3155;;;;
2020/04/25 05:07:08;;;;;;;14.6;10.3;;;;;;;11;62.82324;952.3599;;;;
2020/04/25 05:09:33;;;;;;;14;10.6;;;;;;;11.04;62.80469;952.3995;;;;
2020/04/25 05:11:58;;;;;;;14.8;10.6;;;;;;;10.97;62.78418;952.3875;;;;
2020/04/25 05:14:23;;;;;;;13.8;10.2;;;;;;;11.08;62.52246;952.4175;;;;
2020/04/25 05:16:49;;;;;;;14.4;10.1;;;;;;;11.17;62.90527;952.3821;;;;
2020/04/25 05:19:14;;;;;;;13;10.5;;;;;;;11.04;62.64355;952.384;;;;
2020/04/25 05:21:39;;;;;;;15.3;10.7;;;;;;;11.16;62.39551;952.4465;;;;
2020/04/25 05:24:05;;;;;;;12.9;9.9;;;;;;;11.17;62.58203;952.4653;;;;
2020/04/25 05:26:30;;;;;;;14.1;11.1;;;;;;;11.36;61.64063;952.4947;;;;
2020/04/25 05:28:55;;;;;;;16.3;11.5;;;;;;;11.35;61.62695;952.4906;;;;
2020/04/25 05:31:20;;;;;;;17.2;11.4;;;;;;;11.48;61.25293;952.5025;;;;
2020/04/25 05:33:45;;;;;;;17.1;11.3;;;;;;;11.51;62.01758;952.5206;;;;
2020/04/25 05:36:10;;;;;;;15.6;11.4;;;;;;;11.61;61.21484;952.5309;;;;
2020/04/25 05:38:35;;;;;;;16.6;11.9;;;;;;;11.58;61.09473;952.5389;;;;
2020/04/25 05:41:00;;;;;;;19.2;12.9;;;;;;;11.71;60.62793;952.5222;;;;
2020/04/25 05:43:25;;;;;;;17.8;13.7;;;;;;;11.65;60.5625;952.5726;;;;
2020/04/25 05:45:51;;;;;;;17.6;13.6;;;;;;;11.66;60.94434;952.5765;;;;
2020/04/25 05:48:16;;;;;;;19.7;14.3;;;;;;;11.73;59.9375;952.6047;;;;
2020/04/25 05:50:41;;;;;;;19;14.3;;;;;;;11.76;59.96582;952.6122;;;;
2020/04/25 05:53:08;;;;;;;16.8;14.1;;;;;;;11.89;59.70605;952.6658;;;;
2020/04/25 05:55:33;;;;;;;19.4;14.9;;;;;;;11.97;59.60156;952.6694;;;;
2020/04/25 05:57:58;;;;;;;21.5;14.7;;;;;;;12.04;59.42773;952.6776;;;;
2020/04/25 06:00:23;;;;;;;20.1;14.8;;;;;;;12.17;59.14551;952.6361;;;;
2020/04/25 06:02:48;;;;;;;20.2;15.3;;;;;;;12.27;59.03125;952.7018;;;;
2020/04/25 06:05:13;;;;;;;22.7;16.2;;;;;;;12.2;59.06738;952.741;;;;
2020/04/25 06:07:39;;;;;;;20.7;15.6;;;;;;;12.26;58.81055;952.7751;;;;
2020/04/25 06:10:05;;;;;;;19.6;16.2;;;;;;;12.24;59.09668;952.7908;;;;
2020/04/25 06:12:30;;;;;;;21.5;16.2;;;;;;;12.39;58.6084;952.7778;;;;
2020/04/25 06:14:56;;;;;;;21.5;15.7;;;;;;;12.53;58.41895;952.7402;;;;
2020/04/25 06:17:21;;;;;;;21.7;17;;;;;;;12.51;58.40527;952.7509;;;;
2020/04/25 06:19:46;;;;;;;21.3;16.1;;;;;;;12.61;58.24512;952.7477;;;;
2020/04/25 06:22:12;;;;;;;24.4;17.3;;;;;;;12.57;57.77637;952.7509;;;;
2020/04/25 06:24:37;;;;;;;24.1;17;;;;;;;12.58;57.97461;952.7608;;;;
2020/04/25 06:27:05;;;;;;;24.1;17.7;;;;;;;12.59;58.24121;952.8203;;;;
2020/04/25 06:29:30;;;;;;;25;17.9;;;;;;;12.55;57.62402;952.755;;;;
2020/04/25 06:31:55;;;;;;;22.9;18.1;;;;;;;12.66;57.5918;952.8589;;;;
2020/04/25 06:34:21;;;;;;;25;17.7;;;;;;;12.73;57.41602;952.9634;;;;
2020/04/25 06:36:46;;;;;;;28.6;17.9;;;;;;;12.82;57.54492;952.9119;;;;
2020/04/25 06:39:11;;;;;;;24.1;17.4;;;;;;;12.95;56.87793;952.9241;;;;
2020/04/25 06:41:36;;;;;;;23.3;17.7;;;;;;;12.95;57.11035;952.933;;;;
2020/04/25 06:44:01;;;;;;;23.1;17.8;;;;;;;12.94;57.05078;952.938;;;;
2020/04/25 06:46:26;;;;;;;23;17.1;;;;;;;13.01;57.03711;952.9222;;;;
2020/04/25 06:48:51;;;;;;;22.6;16.9;;;;;;;13.09;56.72266;952.9051;;;;
2020/04/25 06:51:17;;;;;;;23.2;17.7;;;;;;;13.16;56.75488;952.9294;;;;
2020/04/25 06:53:42;;;;;;;22.8;17.6;;;;;;;13.17;56.38574;952.9492;;;;
2020/04/25 06:56:08;;;;;;;22.8;17.7;;;;;;;13.35;55.93457;952.9622;;;;
2020/04/25 06:58:33;;;;;;;25.7;17.2;;;;;;;13.35;56.28223;952.9769;;;;
2020/04/25 07:00:59;;;;;;;23.1;17.5;;;;;;;13.46;55.0791;952.9412;;;;
2020/04/25 07:03:24;;;;;;;24;16.8;;;;;;;13.5;55.31738;952.9913;;;;
2020/04/25 07:05:49;;;;;;;24.8;17.5;;;;;;;13.48;54.9668;952.9528;;;;
2020/04/25 07:08:15;;;;;;;23;16.9;;;;;;;13.54;55.34473;952.9207;;;;
2020/04/25 07:10:43;;;;;;;25.3;17;;;;;;;13.63;55.1709;952.9547;;;;
2020/04/25 07:13:09;;;;;;;22.3;16.6;;;;;;;13.67;54.48047;953.0112;;;;
2020/04/25 07:15:37;;;;;;;22.2;15.8;;;;;;;13.82;53.39746;953.0112;;;;
2020/04/25 07:18:03;;;;;;;21.5;15.6;;;;;;;13.69;53.38281;953.0494;;;;
2020/04/25 07:20:28;;;;;;;19.6;16.1;;;;;;;13.82;52.91113;953.0769;;;;
2020/04/25 07:22:54;;;;;;;24.7;16.7;;;;;;;13.84;53.5752;953.0513;;;;
2020/04/25 07:25:19;;;;;;;23.5;16.1;;;;;;;13.96;52.63867;953.0793;;;;
2020/04/25 07:27:44;;;;;;;20.5;14.8;;;;;;;14.01;51.62402;953.0883;;;;
2020/04/25 07:30:11;;;;;;;26.5;21.2;;;;;;;13.93;50.67383;953.091;;;;
2020/04/25 07:32:36;;;;;;;18.9;14.5;;;;;;;14.12;50.38184;953.1002;;;;
2020/04/25 07:35:02;;;;;;;18.7;14.9;;;;;;;14.06;50.80469;953.1739;;;;
2020/04/25 07:37:27;;;;;;;18.7;13.3;;;;;;;14.07;49.77344;953.1223;;;;
2020/04/25 07:39:53;;;;;;;15.9;12.4;;;;;;;14.22;48.71094;953.1347;;;;
2020/04/25 07:42:18;;;;;;;15.3;11.5;;;;;;;14.16;47.54395;953.1694;;;;
2020/04/25 07:44:43;;;;;;;17.4;12.4;;;;;;;14.11;48.52441;953.2147;;;;
2020/04/25 07:47:10;;;;;;;17.2;12.6;;;;;;;14.01;48.74707;953.2078;;;;
2020/04/25 07:49:37;;;;;;;18.2;12.3;;;;;;;14.23;48.73633;953.2131;;;;
2020/04/25 07:52:04;;;;;;;17.6;12.4;;;;;;;14.32;48.79102;953.2391;;;;
2020/04/25 07:54:31;;;;;;;14.6;12.5;;;;;;;14.33;48.70117;953.2022;;;;
2020/04/25 07:56:58;;;;;;;16.2;12.2;;;;;;;14.32;47.84082;953.2651;;;;
2020/04/25 07:59:23;;;;;;;15;11.7;;;;;;;14.36;48.37891;953.3042;;;;
2020/04/25 08:01:49;;;;;;;15.5;12.1;;;;;;;14.5;47.94141;953.2813;;;;
2020/04/25 08:04:14;;;;;;;14.5;12.1;;;;;;;14.52;47.76953;953.2947;;;;
2020/04/25 08:06:40;;;;;;;16.2;12.4;;;;;;;14.57;48.28613;953.3453;;;;
2020/04/25 08:09:07;;;;;;;14.2;12.3;;;;;;;14.63;47.97852;953.3014;;;;
2020/04/25 08:11:33;;;;;;;17;12.6;;;;;;;14.51;48.53516;953.2953;;;;
2020/04/25 08:13:58;;;;;;;16.4;12.2;;;;;;;14.63;47.78125;953.3769;;;;
2020/04/25 08:16:23;;;;;;;15.4;12.8;;;;;;;14.58;47.69434;953.3599;;;;
2020/04/25 08:18:49;;;;;;;14.3;12.2;;;;;;;14.76;48.35352;953.3897;;;;
2020/04/25 08:21:14;;;;;;;17.1;12.9;;;;;;;14.87;48.44629;953.4276;;;;
2020/04/25 08:23:44;;;;;;;15.7;13.2;;;;;;;14.73;48.72168;953.4573;;;;
2020/04/25 08:26:09;;;;;;;17.8;13.4;;;;;;;14.76;47.94531;953.4112;;;;
2020/04/25 08:28:34;;;;;;;16;13.9;;;;;;;14.81;47.5918;953.3895;;;;
2020/04/25 08:30:59;;;;;;;16.2;13.8;;;;;;;14.79;47.24121;953.3887;;;;
2020/04/25 08:33:24;;;;;;;16.2;13.5;;;;;;;14.87;46.83105;953.3784;;;;
2020/04/25 08:35:57;;;;;;;15.4;13.4;;;;;;;14.93;46.83789;953.3976;;;;
2020/04/25 08:38:22;;;;;;;15;13.4;;;;;;;14.99;47.2627;953.3972;;;;
2020/04/25 08:40:48;;;;;;;17.3;14;;;;;;;14.91;47.83594;953.4067;;;;
2020/04/25 08:43:14;;;;;;;17.6;13.6;;;;;;;15;47.87891;953.3092;;;;
2020/04/25 08:45:39;;;;;;;19.4;13.1;;;;;;;15.25;47.37305;953.329;;;;
2020/04/25 08:48:04;;;;;;;14.1;12.3;;;;;;;15.44;46.86914;953.3561;;;;
2020/04/25 08:50:29;;;;;;;15.9;12.9;;;;;;;15.51;46.07422;953.3881;;;;
2020/04/25 08:52:54;;;;;;;14.4;12.3;;;;;;;15.38;45.48926;953.4428;;;;
2020/04/25 08:55:19;;;;;;;16.3;13;;;;;;;15.35;45.0791;953.4055;;;;
2020/04/25 08:57:45;;;;;;;17.4;12.5;;;;;;;15.4;45.63184;953.3967;;;;
2020/04/25 09:00:10;;;;;;;16;12.3;;;;;;;15.65;45.40137;953.3639;;;;
2020/04/25 09:02:35;;;;;;;14.5;12.1;;;;;;;15.62;44.4668;953.3295;;;;
2020/04/25 09:05:00;;;;;;;14.4;12.2;;;;;;;15.78;44.92578;953.3675;;;;
2020/04/25 09:07:25;;;;;;;14.7;12.4;;;;;;;15.77;44.33105;953.3588;;;;
2020/04/25 09:09:50;;;;;;;13.4;11.9;;;;;;;15.8;44.50781;953.4578;;;;
2020/04/25 09:12:15;;;;;;;14.5;12.1;;;;;;;15.79;44.41406;953.4832;;;;
2020/04/25 09:14:40;;;;;;;15.9;12.9;;;;;;;15.58;43.72949;953.4177;;;;
2020/04/25 09:17:05;;;;;;;15.1;12;;;;;;;15.86;43.52441;953.3699;;;;
2020/04/25 09:19:30;;;;;;;15.4;12;;;;;;;15.82;43.68359;953.4073;;;;
2020/04/25 09:21:55;;;;;;;17.2;11.9;;;;;;;15.77;43.63184;953.3381;;;;
2020/04/25 09:24:20;;;;;;;17.2;11.8;;;;;;;15.78;44.02734;953.3371;;;;
2020/04/25 09:26:45;;;;;;;15.6;11.7;;;;;;;15.98;43.10449;953.3094;;;;
2020/04/25 09:29:10;;;;;;;14.6;11.3;;;;;;;15.77;43.22461;953.2667;;;;
2020/04/25 09:31:36;;;;;;;13.5;10.9;;;;;;;16.09;42.69531;953.2692;;;;
2020/04/25 09:34:01;;;;;;;15.6;10.8;;;;;;;16.17;42.35449;953.3035;;;;
2020/04/25 09:36:26;;;;;;;13.1;11.2;;;;;;;16.2;42.47363;953.2554;;;;
2020/04/25 09:38:51;;;;;;;14.7;10.8;;;;;;;16.16;42.22461;953.2561;;;;
2020/04/25 09:41:16;;;;;;;13.6;11.6;;;;;;;16.08;42.20508;953.2612;;;;
2020/04/25 09:43:41;;;;;;;14.1;11;;;;;;;15.99;42.65137;953.2278;;;;
2020/04/25 09:46:06;;;;;;;15.6;10.9;;;;;;;16.06;41.76074;953.3212;;;;
2020/04/25 09:48:31;;;;;;;13.5;10.1;;;;;;;16.17;41.46777;953.2336;;;;
2020/04/25 09:50:56;;;;;;;11.5;9.2;;;;;;;16.3;41.24707;953.2058;;;;
2020/04/25 09:53:21;;;;;;;12.9;10.1;;;;;;;16.28;40.63867;953.1764;;;;
2020/04/25 09:55:46;;;;;;;11.1;9.9;;;;;;;16.39;41.64063;953.1895;;;;
2020/04/25 09:58:11;;;;;;;11.6;10;;;;;;;16.45;41.10938;953.1994;;;;
2020/04/25 10:00:37;;;;;;;13.8;10;;;;;;;16.47;42.04395;953.1911;;;;
2020/04/25 10:03:02;;;;;;;13.5;9.9;;;;;;;16.39;42.00098;953.1526;;;;
2020/04/25 10:05:27;;;;;;;13;10.3;;;;;;;16.58;41.75195;953.1071;;;;
2020/04/25 10:07:52;;;;;;;13.9;10.4;;;;;;;16.4;41.05859;953.0753;;;;
2020/04/25 10:10:18;;;;;;;19;9.9;;;;;;;16.62;41.33496;953.0267;;;;
2020/04/25 10:12:44;;;;;;;11.9;9.8;;;;;;;16.57;39.75586;953.1022;;;;
2020/04/25 10:15:11;;;;;;;12.1;9.3;;;;;;;16.47;39.96777;953.038;;;;
2020/04/25 10:17:36;;;;;;;10.1;8.5;;;;;;;16.5;40.55371;952.9824;;;;
2020/04/25 10:20:01;;;;;;;15.3;9;;;;;;;16.68;39.47461;952.9855;;;;
2020/04/25 10:22:28;;;;;;;11.5;9.1;;;;;;;16.73;39.43164;953.0712;;;;
2020/04/25 10:24:51;;;;;;;11.5;8.4;;;;;;;16.64;38.83984;952.9968;;;;
2020/04/25 10:27:16;;;;;;;15;8.3;;;;;;;16.43;39.7666;952.9233;;;;
2020/04/25 10:29:41;;;;;;;11.8;8.1;;;;;;;16.53;39.33105;952.8644;;;;
2020/04/25 10:32:06;;;;;;;9.3;7.1;;;;;;;16.62;38.42969;952.9313;;;;
2020/04/25 10:34:31;;;;;;;11;7.3;;;;;;;16.72;38.00586;952.9461;;;;
2020/04/25 10:36:58;;;;;;;11.2;7.6;;;;;;;16.71;37.69043;952.9281;;;;
2020/04/25 10:39:36;;;;;;;9.8;7.7;;;;;;;16.65;37.37012;952.8848;;;;
2020/04/25 10:42:01;;;;;;;10.7;7.2;;;;;;;16.75;39.33984;952.8386;;;;
2020/04/25 10:44:26;;;;;;;10.3;7.2;;;;;;;16.86;37.76172;952.7978;;;;
2020/04/25 10:46:51;;;;;;;9.4;8;;;;;;;16.83;38.10938;952.7966;;;;
2020/04/25 10:49:16;;;;;;;10.3;7.7;;;;;;;16.93;38.09473;952.6863;;;;
2020/04/25 10:51:41;;;;;;;9.5;7.6;;;;;;;16.99;38.14648;952.7372;;;;
2020/04/25 10:54:06;;;;;;;12.5;7.1;;;;;;;17.26;37.88965;952.865;;;;
2020/04/25 10:56:31;;;;;;;8.7;6.8;;;;;;;17.19;36.88965;952.7353;;;;
2020/04/25 10:58:56;;;;;;;10.4;6.8;;;;;;;17.27;37.28223;952.7356;;;;
2020/04/25 11:01:22;;;;;;;10.3;6.6;;;;;;;16.97;36.69727;952.6708;;;;
2020/04/25 11:03:47;;;;;;;9.6;7.3;;;;;;;17.09;37.38477;952.704;;;;
2020/04/25 11:06:12;;;;;;;9;6.8;;;;;;;16.99;37.49316;952.622;;;;
2020/04/25 11:08:37;;;;;;;8.6;6.8;;;;;;;17.19;36.78418;952.6003;;;;
2020/04/25 11:11:02;;;;;;;8.9;6.5;;;;;;;17.52;36.14648;952.692;;;;
2020/04/25 11:13:27;;;;;;;8.2;6.1;;;;;;;17.69;35.98438;952.6691;;;;
2020/04/25 11:15:52;;;;;;;8.5;6.1;;;;;;;17.52;35.7959;952.5577;;;;
2020/04/25 11:18:21;;;;;;;7.5;5.7;;;;;;;17.52;34.96484;952.6492;;;;
2020/04/25 11:20:46;;;;;;;8.2;5.7;;;;;;;17.45;34.41016;952.5608;;;;
2020/04/25 11:23:11;;;;;;;8.2;6;;;;;;;17.36;34.21582;952.5314;;;;
2020/04/25 11:25:36;;;;;;;8.5;5.1;;;;;;;17.51;34.63672;952.4995;;;;
2020/04/25 11:28:02;;;;;;;7.7;5.2;;;;;;;17.45;35.2168;952.4398;;;;
2020/04/25 11:30:26;;;;;;;8.7;5.4;;;;;;;17.69;35.2832;952.42;;;;
2020/04/25 11:32:51;;;;;;;6.4;5.6;;;;;;;17.52;34.48535;952.4556;;;;
2020/04/25 11:35:16;;;;;;;6.7;5;;;;;;;17.54;34.9082;952.4414;;;;
2020/04/25 11:37:41;;;;;;;7.3;5.5;;;;;;;17.51;34.32227;952.4575;;;;
2020/04/25 11:40:07;;;;;;;8.5;5.1;;;;;;;17.75;33.66113;952.3984;;;;
2020/04/25 11:42:32;;;;;;;5.9;4.8;;;;;;;17.89;34.28027;952.2986;;;;
2020/04/25 11:44:57;;;;;;;10.5;5.6;;;;;;;17.81;33.17383;952.3315;;;;
2020/04/25 11:47:23;;;;;;;6.6;5.2;;;;;;;17.83;33.60938;952.3196;;;;
2020/04/25 11:49:48;;;;;;;5.6;4.7;;;;;;;17.98;33.85449;952.2199;;;;
2020/04/25 11:52:14;;;;;;;6.7;5.1;;;;;;;18.21;33.68457;952.2667;;;;
2020/04/25 11:54:39;;;;;;;6.7;4.8;;;;;;;18.08;34.45898;952.2243;;;;
2020/04/25 11:57:04;;;;;;;7.9;4.7;;;;;;;18.24;33.6748;952.2124;;;;
2020/04/25 11:59:30;;;;;;;8.2;4.7;;;;;;;18.23;32.80762;952.2507;;;;
2020/04/25 12:01:55;;;;;;;4.4;4;;;;;;;18.25;32.64551;952.1973;;;;
2020/04/25 12:04:21;;;;;;;6.3;4.5;;;;;;;18.49;32.51074;952.2274;;;;
2020/04/25 12:06:46;;;;;;;7.4;5;;;;;;;18.44;32.06152;952.283;;;;
2020/04/25 12:09:11;;;;;;;5.4;4.2;;;;;;;18.6;32.32031;952.2773;;;;
2020/04/25 12:11:36;;;;;;;6.8;4.7;;;;;;;18.5;33.05078;952.2164;;;;
2020/04/25 12:14:01;;;;;;;6.7;4.4;;;;;;;18.84;31.60938;952.2958;;;;
2020/04/25 12:16:26;;;;;;;5.5;4.4;;;;;;;18.62;32.11035;952.168;;;;
2020/04/25 12:18:55;;;;;;;7.3;5;;;;;;;18.19;31.53906;952.1492;;;;
2020/04/25 12:21:21;;;;;;;5.3;4.4;;;;;;;18.79;33.00195;952.1369;;;;
2020/04/25 12:23:46;;;;;;;7.2;4.6;;;;;;;18.63;32.31055;952.0678;;;;
2020/04/25 12:26:11;;;;;;;6.5;4.3;;;;;;;19;32.23145;952.0681;;;;
2020/04/25 12:28:36;;;;;;;7.2;4.3;;;;;;;19.04;31.76465;952.0042;;;;
2020/04/25 12:31:01;;;;;;;6.3;4.2;;;;;;;18.91;31.88477;951.9854;;;;
2020/04/25 12:33:26;;;;;;;5.1;4;;;;;;;19.11;31.75781;951.9897;;;;
2020/04/25 12:35:51;;;;;;;5.9;3.8;;;;;;;19.48;31.75;951.983;;;;
2020/04/25 12:38:16;;;;;;;6.7;4.7;;;;;;;19.33;31.7041;952.017;;;;
2020/04/25 12:40:41;;;;;;;8.7;4.4;;;;;;;19.18;31.07031;951.9182;;;;
2020/04/25 12:43:13;;;;;;;6.2;4;;;;;;;19.34;31.39941;951.9359;;;;
2020/04/25 12:45:38;;;;;;;7;4.1;;;;;;;19.82;30.91602;951.9017;;;;
2020/04/25 12:48:03;;;;;;;6.9;3.8;;;;;;;19.87;30.09668;951.9077;;;;
2020/04/25 12:50:29;;;;;;;7.4;3.6;;;;;;;19.9;30.09863;951.8497;;;;
2020/04/25 12:52:54;;;;;;;4.4;3.5;;;;;;;20;30.32813;951.8675;;;;
2020/04/25 12:56:06;;;;;;;5;3.4;;;;;;;19.97;30.08008;951.7477;;;;
2020/04/25 12:58:31;;;;;;;7.2;3.7;;;;;;;20.11;29.65332;951.8005;;;;
2020/04/25 13:00:56;;;;;;;7.1;3.6;;;;;;;20.16;29.64551;951.7449;;;;
2020/04/25 13:03:21;;;;;;;5.2;3.8;;;;;;;20.4;29.03809;951.6926;;;;
2020/04/25 13:05:46;;;;;;;5.9;3.5;;;;;;;20.41;29.55664;951.6908;;;;
2020/04/25 13:08:11;;;;;;;6;3.2;;;;;;;20.59;29.41504;951.6978;;;;
2020/04/25 13:10:36;;;;;;;6.3;3.5;;;;;;;20.59;29.09766;951.6299;;;;
2020/04/25 13:13:01;;;;;;;4.3;3.4;;;;;;;20.71;29.15234;951.6597;;;;
2020/04/25 13:15:26;;;;;;;5.8;3.6;;;;;;;20.36;29.07129;951.6309;;;;
2020/04/25 13:17:51;;;;;;;4;3.3;;;;;;;20.52;29.5166;951.6064;;;;
2020/04/25 13:20:17;;;;;;;5.3;3.2;;;;;;;20.52;30;951.5733;;;;
2020/04/25 13:22:42;;;;;;;4.6;3.2;;;;;;;20.73;28.90625;951.5381;;;;
2020/04/25 13:25:07;;;;;;;4.9;3;;;;;;;20.76;28.96777;951.452;;;;
2020/04/25 13:27:32;;;;;;;4.5;3.1;;;;;;;20.62;28.85254;951.4127;;;;
2020/04/25 13:29:57;;;;;;;6.5;3;;;;;;;20.75;28.49512;951.4886;;;;
2020/04/25 13:32:22;;;;;;;4;3;;;;;;;20.54;28.49414;951.4419;;;;
2020/04/25 13:34:47;;;;;;;4.4;3.2;;;;;;;20.43;29.3584;951.4824;;;;
2020/04/25 13:37:12;;;;;;;5.1;3.4;;;;;;;20.73;28.72949;951.4387;;;;
2020/04/25 13:39:37;;;;;;;5.4;3.4;;;;;;;21.26;29.0127;951.4216;;;;
2020/04/25 13:42:02;;;;;;;4.8;3.2;;;;;;;21.48;27.81152;951.4167;;;;
2020/04/25 13:44:27;;;;;;;4.3;3;;;;;;;21.36;28.27539;951.4286;;;;
2020/04/25 13:46:53;;;;;;;5.5;2.8;;;;;;;21.11;28.58984;951.317;;;;
2020/04/25 13:51:43;;;;;;;5.6;2.9;;;;;;;21.09;28.94238;951.3234;;;;
2020/04/25 13:54:08;;;;;;;5.6;2.8;;;;;;;21.25;28.29199;951.3939;;;;
2020/04/25 13:56:33;;;;;;;5.3;2.7;;;;;;;21.34;28.36816;951.3943;;;;
2020/04/25 13:58:58;;;;;;;6;3.4;;;;;;;20.78;28.79199;951.3103;;;;
2020/04/25 14:01:23;;;;;;;6.9;3.1;;;;;;;20.69;28.63281;951.3102;;;;
2020/04/25 14:03:49;;;;;;;4.2;3.1;;;;;;;20.21;28.68457;951.3353;;;;
2020/04/25 14:06:14;;;;;;;4.7;2.5;;;;;;;20.02;29.36621;951.3513;;;;
2020/04/25 14:08:40;;;;;;;4.8;2.5;;;;;;;20.39;28.11914;951.3858;;;;
2020/04/25 14:11:05;;;;;;;4.1;2.3;;;;;;;20.4;28.48535;951.34;;;;
2020/04/25 14:13:31;;;;;;;4.2;2.1;;;;;;;20.57;27.94238;951.2544;;;;
2020/04/25 14:15:56;;;;;;;3.9;2.2;;;;;;;20.55;28.44727;951.2742;;;;
2020/04/25 14:18:21;;;;;;;4.5;2.6;;;;;;;20.02;28.21387;951.2455;;;;
2020/04/25 14:20:46;;;;;;;6.6;2.6;;;;;;;20.35;28.45898;951.2357;;;;
2020/04/25 14:23:13;;;;;;;3.9;2.3;;;;;;;20.3;28.43164;951.1207;;;;